sensor_id;sensor_type;location;lat;lon;timestamp;pressure;altitude;pressure_sealevel;temperature;humidity
56719;BME280;42597;40.636;0.278;2024-01-06T00:01:10;96026.69;;;12.47;59.07
56719;BME280;42597;40.636;0.278;2024-01-06T00:03:37;96104.97;;;13.23;56.40
56719;BME280;42597;40.636;0.278;2024-01-06T00:06:03;96109.38;;;14.30;54.92
56719;BME280;42597;40.636;0.278;2024-01-06T00:08:28;96088.94;;;13.93;56.37
56719;BME280;42597;40.636;0.278;2024-01-06T00:10:54;96129.81;;;11.99;48.35
56719;BME280;42597;40.636;0.278;2024-01-06T00:13:20;96128.16;;;13.78;56.46
56719;BME280;42597;40.636;0.278;2024-01-06T00:15:46;96088.59;;;14.75;54.35
56719;BME280;42597;40.636;0.278;2024-01-06T00:18:11;96095.56;;;12.53;51.55
56719;BME280;42597;40.636;0.278;2024-01-06T00:20:37;96107.28;;;13.25;55.03
56719;BME280;42597;40.636;0.278;2024-01-06T00:23:03;96130.50;;;13.22;45.49
56719;BME280;42597;40.636;0.278;2024-01-06T00:25:29;96129.75;;;13.04;46.34
56719;BME280;42597;40.636;0.278;2024-01-06T00:27:54;96153.63;;;10.42;48.50
56719;BME280;42597;40.636;0.278;2024-01-06T00:30:20;96094.94;;;14.51;54.54
56719;BME280;42597;40.636;0.278;2024-01-06T00:32:46;96133.22;;;13.76;54.23
56719;BME280;42597;40.636;0.278;2024-01-06T00:35:11;96176.88;;;11.32;48.98
56719;BME280;42597;40.636;0.278;2024-01-06T00:37:37;96181.72;;;13.63;52.34
56719;BME280;42597;40.636;0.278;2024-01-06T00:40:03;96135.84;;;12.54;60.15
56719;BME280;42597;40.636;0.278;2024-01-06T00:42:29;96165.78;;;11.99;46.70
56719;BME280;42597;40.636;0.278;2024-01-06T00:44:55;96114.88;;;14.19;54.16
56719;BME280;42597;40.636;0.278;2024-01-06T00:47:20;96132.38;;;11.81;45.73
56719;BME280;42597;40.636;0.278;2024-01-06T00:49:49;96138.25;;;13.17;55.22
56719;BME280;42597;40.636;0.278;2024-01-06T00:52:15;96125.63;;;14.44;53.65
56719;BME280;42597;40.636;0.278;2024-01-06T00:54:40;96136.66;;;14.01;53.35
56719;BME280;42597;40.636;0.278;2024-01-06T00:57:06;96154.97;;;13.44;50.54
56719;BME280;42597;40.636;0.278;2024-01-06T00:59:31;96107.06;;;14.28;54.76
56719;BME280;42597;40.636;0.278;2024-01-06T01:01:57;96078.13;;;14.70;53.05
56719;BME280;42597;40.636;0.278;2024-01-06T01:04:23;96145.03;;;14.53;53.14
56719;BME280;42597;40.636;0.278;2024-01-06T01:06:48;96143.16;;;12.40;48.92
56719;BME280;42597;40.636;0.278;2024-01-06T01:09:14;96162.97;;;12.69;49.55
56719;BME280;42597;40.636;0.278;2024-01-06T01:11:40;96101.09;;;13.35;55.21
56719;BME280;42597;40.636;0.278;2024-01-06T01:14:06;96156.13;;;13.50;53.71
56719;BME280;42597;40.636;0.278;2024-01-06T01:16:32;96178.13;;;12.88;58.11
56719;BME280;42597;40.636;0.278;2024-01-06T01:18:58;96150.50;;;14.39;51.99
56719;BME280;42597;40.636;0.278;2024-01-06T01:21:24;96135.09;;;13.97;55.12
56719;BME280;42597;40.636;0.278;2024-01-06T01:23:49;96176.22;;;12.99;45.61
56719;BME280;42597;40.636;0.278;2024-01-06T01:26:15;96189.22;;;12.54;51.37
56719;BME280;42597;40.636;0.278;2024-01-06T01:28:40;96154.16;;;13.72;52.29
56719;BME280;42597;40.636;0.278;2024-01-06T01:31:06;96234.19;;;12.58;48.35
56719;BME280;42597;40.636;0.278;2024-01-06T01:33:32;96196.44;;;13.41;48.83
56719;BME280;42597;40.636;0.278;2024-01-06T01:35:57;96181.78;;;10.78;55.08
56719;BME280;42597;40.636;0.278;2024-01-06T01:38:23;96195.13;;;12.81;53.58
56719;BME280;42597;40.636;0.278;2024-01-06T01:40:48;96206.88;;;11.16;50.67
56719;BME280;42597;40.636;0.278;2024-01-06T01:43:18;96159.19;;;13.09;55.69
56719;BME280;42597;40.636;0.278;2024-01-06T01:45:44;96170.84;;;13.52;54.09
56719;BME280;42597;40.636;0.278;2024-01-06T01:48:10;96178.22;;;13.34;57.09
56719;BME280;42597;40.636;0.278;2024-01-06T01:50:36;96197.16;;;13.16;47.70
56719;BME280;42597;40.636;0.278;2024-01-06T01:53:02;96217.38;;;13.37;48.32
56719;BME280;42597;40.636;0.278;2024-01-06T01:55:27;96161.38;;;14.36;54.13
56719;BME280;42597;40.636;0.278;2024-01-06T01:57:53;96133.59;;;13.71;54.91
56719;BME280;42597;40.636;0.278;2024-01-06T02:00:19;96156.88;;;13.50;53.50
56719;BME280;42597;40.636;0.278;2024-01-06T02:02:45;96175.88;;;13.72;50.37
56719;BME280;42597;40.636;0.278;2024-01-06T02:05:11;96164.97;;;12.93;51.72
56719;BME280;42597;40.636;0.278;2024-01-06T02:07:37;96152.22;;;13.15;53.92
56719;BME280;42597;40.636;0.278;2024-01-06T02:10:03;96151.81;;;13.09;46.94
56719;BME280;42597;40.636;0.278;2024-01-06T02:12:28;96148.75;;;13.40;50.81
56719;BME280;42597;40.636;0.278;2024-01-06T02:14:54;96131.28;;;13.69;51.01
56719;BME280;42597;40.636;0.278;2024-01-06T02:17:19;96156.09;;;13.78;46.58
56719;BME280;42597;40.636;0.278;2024-01-06T02:19:45;96132.78;;;12.63;46.06
56719;BME280;42597;40.636;0.278;2024-01-06T02:22:11;96135.88;;;14.01;52.09
56719;BME280;42597;40.636;0.278;2024-01-06T02:24:36;96134.56;;;14.45;52.36
56719;BME280;42597;40.636;0.278;2024-01-06T02:27:02;96149.09;;;13.92;51.62
56719;BME280;42597;40.636;0.278;2024-01-06T02:29:27;96118.09;;;12.93;48.79
56719;BME280;42597;40.636;0.278;2024-01-06T02:31:53;96115.13;;;14.43;51.82
56719;BME280;42597;40.636;0.278;2024-01-06T02:34:19;96151.44;;;13.18;48.29
56719;BME280;42597;40.636;0.278;2024-01-06T02:36:44;96156.50;;;12.00;53.50
56719;BME280;42597;40.636;0.278;2024-01-06T02:39:10;96175.91;;;12.13;57.35
56719;BME280;42597;40.636;0.278;2024-01-06T02:41:35;96200.53;;;10.64;53.70
56719;BME280;42597;40.636;0.278;2024-01-06T02:44:02;96172.28;;;14.21;53.19
56719;BME280;42597;40.636;0.278;2024-01-06T02:46:29;96137.75;;;11.70;47.30
56719;BME280;42597;40.636;0.278;2024-01-06T02:48:54;96085.47;;;13.86;51.18
56719;BME280;42597;40.636;0.278;2024-01-06T02:51:20;96111.91;;;12.74;55.11
56719;BME280;42597;40.636;0.278;2024-01-06T02:53:46;96126.66;;;13.59;47.58
56719;BME280;42597;40.636;0.278;2024-01-06T02:56:12;96106.69;;;12.19;54.42
56719;BME280;42597;40.636;0.278;2024-01-06T02:58:38;96063.47;;;12.98;55.45
56719;BME280;42597;40.636;0.278;2024-01-06T03:01:04;96078.56;;;12.63;57.97
56719;BME280;42597;40.636;0.278;2024-01-06T03:03:29;96102.91;;;12.49;49.99
56719;BME280;42597;40.636;0.278;2024-01-06T03:05:55;96128.00;;;12.24;48.44
56719;BME280;42597;40.636;0.278;2024-01-06T03:08:20;96095.97;;;13.83;50.27
56719;BME280;42597;40.636;0.278;2024-01-06T03:10:49;96107.59;;;13.84;50.72
56719;BME280;42597;40.636;0.278;2024-01-06T03:13:14;96068.44;;;13.81;49.19
56719;BME280;42597;40.636;0.278;2024-01-06T03:15:40;96122.00;;;13.34;54.11
56719;BME280;42597;40.636;0.278;2024-01-06T03:18:05;96098.69;;;13.76;53.15
56719;BME280;42597;40.636;0.278;2024-01-06T03:20:31;96068.47;;;12.46;54.95
56719;BME280;42597;40.636;0.278;2024-01-06T03:22:57;96102.69;;;9.80;53.76
56719;BME280;42597;40.636;0.278;2024-01-06T03:25:22;96094.19;;;9.78;52.61
56719;BME280;42597;40.636;0.278;2024-01-06T03:27:48;96084.78;;;12.74;47.82
56719;BME280;42597;40.636;0.278;2024-01-06T03:30:13;96080.69;;;14.18;52.25
56719;BME280;42597;40.636;0.278;2024-01-06T03:32:41;96042.72;;;14.11;51.70
56719;BME280;42597;40.636;0.278;2024-01-06T03:35:07;96063.09;;;13.39;50.25
56719;BME280;42597;40.636;0.278;2024-01-06T03:37:33;96112.47;;;10.97;55.44
56719;BME280;42597;40.636;0.278;2024-01-06T03:39:59;96076.22;;;13.72;54.87
56719;BME280;42597;40.636;0.278;2024-01-06T03:42:24;96093.78;;;11.84;55.41
56719;BME280;42597;40.636;0.278;2024-01-06T03:44:50;96075.78;;;11.51;54.83
56719;BME280;42597;40.636;0.278;2024-01-06T03:47:15;96049.13;;;12.58;50.51
56719;BME280;42597;40.636;0.278;2024-01-06T03:49:41;96058.81;;;12.66;57.88
56719;BME280;42597;40.636;0.278;2024-01-06T03:52:07;96077.00;;;12.48;54.07
56719;BME280;42597;40.636;0.278;2024-01-06T03:54:32;96042.63;;;14.25;52.09
56719;BME280;42597;40.636;0.278;2024-01-06T03:56:58;96097.56;;;11.72;49.61
56719;BME280;42597;40.636;0.278;2024-01-06T03:59:23;96101.19;;;11.94;55.21
56719;BME280;42597;40.636;0.278;2024-01-06T04:01:49;96051.47;;;13.34;53.32
56719;BME280;42597;40.636;0.278;2024-01-06T04:04:14;96039.84;;;13.16;50.82
56719;BME280;42597;40.636;0.278;2024-01-06T04:06:40;96045.69;;;13.15;53.81
56719;BME280;42597;40.636;0.278;2024-01-06T04:09:05;96078.47;;;12.20;57.32
56719;BME280;42597;40.636;0.278;2024-01-06T04:11:31;96105.06;;;11.34;50.64
56719;BME280;42597;40.636;0.278;2024-01-06T04:13:56;96087.75;;;12.30;57.17
56719;BME280;42597;40.636;0.278;2024-01-06T04:16:22;96106.09;;;13.65;54.32
56719;BME280;42597;40.636;0.278;2024-01-06T04:18:48;96075.50;;;12.79;53.46
56719;BME280;42597;40.636;0.278;2024-01-06T04:21:13;96041.31;;;12.17;60.10
56719;BME280;42597;40.636;0.278;2024-01-06T04:23:39;96096.81;;;12.95;48.76
56719;BME280;42597;40.636;0.278;2024-01-06T04:26:04;96100.28;;;11.14;53.58
56719;BME280;42597;40.636;0.278;2024-01-06T04:28:32;96114.81;;;12.16;55.30
56719;BME280;42597;40.636;0.278;2024-01-06T04:30:59;96020.50;;;12.60;54.29
56719;BME280;42597;40.636;0.278;2024-01-06T04:33:24;96088.47;;;12.09;58.83
56719;BME280;42597;40.636;0.278;2024-01-06T04:35:50;96061.53;;;12.70;57.17
56719;BME280;42597;40.636;0.278;2024-01-06T04:38:16;96103.66;;;12.31;56.58
56719;BME280;42597;40.636;0.278;2024-01-06T04:40:41;96078.59;;;13.13;56.38
56719;BME280;42597;40.636;0.278;2024-01-06T04:43:07;96075.03;;;12.30;59.17
56719;BME280;42597;40.636;0.278;2024-01-06T04:45:33;96024.31;;;13.49;54.02
56719;BME280;42597;40.636;0.278;2024-01-06T04:47:58;96117.69;;;11.75;50.19
56719;BME280;42597;40.636;0.278;2024-01-06T04:50:24;96114.00;;;12.08;52.63
56719;BME280;42597;40.636;0.278;2024-01-06T04:52:49;96082.47;;;12.83;54.91
56719;BME280;42597;40.636;0.278;2024-01-06T04:55:15;96100.16;;;12.38;49.51
56719;BME280;42597;40.636;0.278;2024-01-06T04:57:41;96075.84;;;11.58;49.54
56719;BME280;42597;40.636;0.278;2024-01-06T05:00:07;96070.72;;;12.15;50.20
56719;BME280;42597;40.636;0.278;2024-01-06T05:02:32;96099.16;;;13.11;56.21
56719;BME280;42597;40.636;0.278;2024-01-06T05:04:58;96043.91;;;14.03;50.33
56719;BME280;42597;40.636;0.278;2024-01-06T05:07:23;96074.53;;;12.03;53.01
56719;BME280;42597;40.636;0.278;2024-01-06T05:09:49;96135.97;;;13.37;50.09
56719;BME280;42597;40.636;0.278;2024-01-06T05:12:15;96136.69;;;12.83;51.35
56719;BME280;42597;40.636;0.278;2024-01-06T05:14:40;96121.50;;;12.47;53.71
56719;BME280;42597;40.636;0.278;2024-01-06T05:17:06;96134.44;;;11.95;49.84
56719;BME280;42597;40.636;0.278;2024-01-06T05:19:31;96058.06;;;13.37;53.05
56719;BME280;42597;40.636;0.278;2024-01-06T05:21:57;96063.09;;;13.10;53.70
56719;BME280;42597;40.636;0.278;2024-01-06T05:24:23;96014.97;;;13.68;52.06
56719;BME280;42597;40.636;0.278;2024-01-06T05:26:49;96096.81;;;13.52;53.55
56719;BME280;42597;40.636;0.278;2024-01-06T05:29:14;96095.63;;;13.17;54.08
56719;BME280;42597;40.636;0.278;2024-01-06T05:31:40;96107.22;;;12.71;48.35
56719;BME280;42597;40.636;0.278;2024-01-06T05:34:06;96144.41;;;12.81;54.24
56719;BME280;42597;40.636;0.278;2024-01-06T05:36:32;96134.63;;;12.45;52.99
56719;BME280;42597;40.636;0.278;2024-01-06T05:38:58;96023.50;;;12.09;49.80
56719;BME280;42597;40.636;0.278;2024-01-06T05:41:25;96044.03;;;12.24;57.92
56719;BME280;42597;40.636;0.278;2024-01-06T05:43:51;96060.25;;;13.89;50.76
56719;BME280;42597;40.636;0.278;2024-01-06T05:46:21;96083.25;;;13.30;53.32
56719;BME280;42597;40.636;0.278;2024-01-06T05:48:47;96040.63;;;13.13;54.17
56719;BME280;42597;40.636;0.278;2024-01-06T05:51:12;96123.53;;;13.03;49.17
56719;BME280;42597;40.636;0.278;2024-01-06T05:53:38;96091.34;;;12.70;55.52
56719;BME280;42597;40.636;0.278;2024-01-06T05:56:03;96117.34;;;12.96;49.37
56719;BME280;42597;40.636;0.278;2024-01-06T05:58:29;96063.88;;;13.14;51.30
56719;BME280;42597;40.636;0.278;2024-01-06T06:00:55;96058.47;;;13.28;53.35
56719;BME280;42597;40.636;0.278;2024-01-06T06:03:20;96116.28;;;11.99;50.62
56719;BME280;42597;40.636;0.278;2024-01-06T06:05:46;96131.75;;;12.02;54.74
56719;BME280;42597;40.636;0.278;2024-01-06T06:08:11;96129.75;;;13.57;51.52
56719;BME280;42597;40.636;0.278;2024-01-06T06:10:37;96123.28;;;12.07;51.47
56719;BME280;42597;40.636;0.278;2024-01-06T06:13:07;96139.81;;;13.68;52.28
56719;BME280;42597;40.636;0.278;2024-01-06T06:15:36;96079.38;;;13.03;53.76
56719;BME280;42597;40.636;0.278;2024-01-06T06:18:02;96016.59;;;13.47;51.95
56719;BME280;42597;40.636;0.278;2024-01-06T06:20:27;96156.47;;;13.20;50.90
56719;BME280;42597;40.636;0.278;2024-01-06T06:22:53;96109.56;;;13.66;49.47
56719;BME280;42597;40.636;0.278;2024-01-06T06:25:18;96074.75;;;13.36;52.28
56719;BME280;42597;40.636;0.278;2024-01-06T06:27:44;96112.69;;;13.61;49.29
56719;BME280;42597;40.636;0.278;2024-01-06T06:30:10;96207.28;;;13.66;49.13
56719;BME280;42597;40.636;0.278;2024-01-06T06:32:35;96196.25;;;12.58;54.60
56719;BME280;42597;40.636;0.278;2024-01-06T06:35:01;96166.94;;;13.82;49.74
56719;BME280;42597;40.636;0.278;2024-01-06T06:37:27;96170.00;;;10.00;52.13
56719;BME280;42597;40.636;0.278;2024-01-06T06:39:52;96193.72;;;13.76;50.82
56719;BME280;42597;40.636;0.278;2024-01-06T06:42:18;96151.38;;;14.04;49.98
56719;BME280;42597;40.636;0.278;2024-01-06T06:44:44;96162.66;;;11.97;47.82
56719;BME280;42597;40.636;0.278;2024-01-06T06:47:09;96066.16;;;12.48;50.74
56719;BME280;42597;40.636;0.278;2024-01-06T06:49:35;96008.91;;;12.67;51.26
56719;BME280;42597;40.636;0.278;2024-01-06T06:52:00;96177.81;;;13.25;49.89
56719;BME280;42597;40.636;0.278;2024-01-06T06:54:27;96095.25;;;13.01;52.75
56719;BME280;42597;40.636;0.278;2024-01-06T06:56:54;96195.13;;;10.64;52.25
56719;BME280;42597;40.636;0.278;2024-01-06T06:59:19;96187.91;;;13.39;50.95
56719;BME280;42597;40.636;0.278;2024-01-06T07:01:45;96108.47;;;13.24;52.53
56719;BME280;42597;40.636;0.278;2024-01-06T07:04:10;96163.88;;;13.41;51.47
56719;BME280;42597;40.636;0.278;2024-01-06T07:06:36;96088.44;;;12.05;51.71
56719;BME280;42597;40.636;0.278;2024-01-06T07:09:02;96097.75;;;12.08;55.82
56719;BME280;42597;40.636;0.278;2024-01-06T07:11:28;96197.16;;;11.56;52.02
56719;BME280;42597;40.636;0.278;2024-01-06T07:13:54;96132.19;;;11.49;52.11
56719;BME280;42597;40.636;0.278;2024-01-06T07:16:19;96185.97;;;11.54;56.03
56719;BME280;42597;40.636;0.278;2024-01-06T07:18:45;96117.22;;;12.46;48.67
56719;BME280;42597;40.636;0.278;2024-01-06T07:21:12;96176.16;;;11.39;53.27
56719;BME280;42597;40.636;0.278;2024-01-06T07:23:38;96141.63;;;12.49;54.45
56719;BME280;42597;40.636;0.278;2024-01-06T07:26:03;96163.81;;;13.01;47.31
56719;BME280;42597;40.636;0.278;2024-01-06T07:28:29;96184.63;;;12.62;51.72
56719;BME280;42597;40.636;0.278;2024-01-06T07:30:54;96181.91;;;12.62;54.82
56719;BME280;42597;40.636;0.278;2024-01-06T07:33:20;96184.78;;;13.26;51.08
56719;BME280;42597;40.636;0.278;2024-01-06T07:35:46;96184.28;;;11.87;52.82
56719;BME280;42597;40.636;0.278;2024-01-06T07:38:12;96155.72;;;13.19;50.69
56719;BME280;42597;40.636;0.278;2024-01-06T07:40:38;96121.94;;;12.63;48.42
56719;BME280;42597;40.636;0.278;2024-01-06T07:43:04;96133.28;;;11.96;52.28
56719;BME280;42597;40.636;0.278;2024-01-06T07:45:31;96190.13;;;12.94;49.93
56719;BME280;42597;40.636;0.278;2024-01-06T07:47:57;96152.44;;;11.73;52.78
56719;BME280;42597;40.636;0.278;2024-01-06T07:50:23;96164.59;;;13.09;50.82
56719;BME280;42597;40.636;0.278;2024-01-06T07:52:49;96135.72;;;12.19;51.22
56719;BME280;42597;40.636;0.278;2024-01-06T07:55:14;96137.53;;;13.55;49.81
56719;BME280;42597;40.636;0.278;2024-01-06T07:57:40;96202.00;;;11.32;51.98
56719;BME280;42597;40.636;0.278;2024-01-06T08:00:06;96205.75;;;13.36;48.88
56719;BME280;42597;40.636;0.278;2024-01-06T08:02:31;96172.19;;;12.43;51.43
56719;BME280;42597;40.636;0.278;2024-01-06T08:04:57;96137.41;;;12.73;52.39
56719;BME280;42597;40.636;0.278;2024-01-06T08:07:23;96145.88;;;12.54;51.86
56719;BME280;42597;40.636;0.278;2024-01-06T08:09:49;96257.56;;;11.67;50.60
56719;BME280;42597;40.636;0.278;2024-01-06T08:12:15;96193.34;;;11.64;50.64
56719;BME280;42597;40.636;0.278;2024-01-06T08:14:40;96267.06;;;10.46;50.74
56719;BME280;42597;40.636;0.278;2024-01-06T08:17:06;96238.16;;;12.82;49.83
56719;BME280;42597;40.636;0.278;2024-01-06T08:19:32;96267.50;;;12.63;49.23
56719;BME280;42597;40.636;0.278;2024-01-06T08:21:58;96234.84;;;12.38;51.49
56719;BME280;42597;40.636;0.278;2024-01-06T08:24:24;96240.28;;;12.41;46.44
56719;BME280;42597;40.636;0.278;2024-01-06T08:26:50;96289.06;;;10.48;50.90
56719;BME280;42597;40.636;0.278;2024-01-06T08:29:16;96309.41;;;11.76;49.58
56719;BME280;42597;40.636;0.278;2024-01-06T08:31:44;96248.13;;;12.60;52.33
56719;BME280;42597;40.636;0.278;2024-01-06T08:34:10;96245.22;;;12.25;47.08
56719;BME280;42597;40.636;0.278;2024-01-06T08:36:35;96154.09;;;12.79;49.47
56719;BME280;42597;40.636;0.278;2024-01-06T08:39:01;96232.78;;;10.83;53.08
56719;BME280;42597;40.636;0.278;2024-01-06T08:41:27;96313.03;;;11.47;49.38
56719;BME280;42597;40.636;0.278;2024-01-06T08:43:52;96177.81;;;13.50;50.11
56719;BME280;42597;40.636;0.278;2024-01-06T08:46:18;96259.22;;;13.28;49.88
56719;BME280;42597;40.636;0.278;2024-01-06T08:48:43;96261.56;;;13.51;49.61
56719;BME280;42597;40.636;0.278;2024-01-06T08:51:09;96281.75;;;13.72;47.71
56719;BME280;42597;40.636;0.278;2024-01-06T08:53:34;96300.09;;;12.80;50.85
56719;BME280;42597;40.636;0.278;2024-01-06T08:56:00;96298.75;;;13.37;50.09
56719;BME280;42597;40.636;0.278;2024-01-06T08:58:26;96278.50;;;13.09;47.17
56719;BME280;42597;40.636;0.278;2024-01-06T09:00:51;96306.38;;;13.06;49.62
56719;BME280;42597;40.636;0.278;2024-01-06T09:03:19;96318.88;;;13.28;46.53
56719;BME280;42597;40.636;0.278;2024-01-06T09:05:55;96281.63;;;13.11;45.59
56719;BME280;42597;40.636;0.278;2024-01-06T09:08:21;96276.88;;;12.87;50.10
56719;BME280;42597;40.636;0.278;2024-01-06T09:10:47;96344.00;;;13.11;49.10
56719;BME280;42597;40.636;0.278;2024-01-06T09:13:13;96294.94;;;13.84;47.44
56719;BME280;42597;40.636;0.278;2024-01-06T09:15:39;96294.41;;;12.30;47.42
56719;BME280;42597;40.636;0.278;2024-01-06T09:18:04;96256.09;;;12.32;51.83
56719;BME280;42597;40.636;0.278;2024-01-06T09:20:30;96293.63;;;12.33;45.58
56719;BME280;42597;40.636;0.278;2024-01-06T09:22:56;96342.69;;;12.83;50.40
56719;BME280;42597;40.636;0.278;2024-01-06T09:25:21;96368.81;;;11.99;49.01
56719;BME280;42597;40.636;0.278;2024-01-06T09:27:50;96344.16;;;12.70;45.68
56719;BME280;42597;40.636;0.278;2024-01-06T09:30:16;96229.75;;;13.27;47.68
56719;BME280;42597;40.636;0.278;2024-01-06T09:32:42;96349.47;;;12.49;47.11
56719;BME280;42597;40.636;0.278;2024-01-06T09:35:07;96309.97;;;12.48;46.67
56719;BME280;42597;40.636;0.278;2024-01-06T09:37:33;96311.22;;;12.06;47.85
56719;BME280;42597;40.636;0.278;2024-01-06T09:39:58;96350.22;;;11.57;47.25
56719;BME280;42597;40.636;0.278;2024-01-06T09:42:24;96316.63;;;13.52;48.46
56719;BME280;42597;40.636;0.278;2024-01-06T09:44:50;96377.81;;;13.39;48.62
56719;BME280;42597;40.636;0.278;2024-01-06T09:47:18;96342.19;;;13.44;49.33
56719;BME280;42597;40.636;0.278;2024-01-06T09:49:48;96346.88;;;13.47;47.63
56719;BME280;42597;40.636;0.278;2024-01-06T09:52:15;96343.75;;;13.52;48.54
56719;BME280;42597;40.636;0.278;2024-01-06T09:54:51;96383.34;;;13.67;48.24
56719;BME280;42597;40.636;0.278;2024-01-06T09:57:17;96358.34;;;13.15;48.89
56719;BME280;42597;40.636;0.278;2024-01-06T09:59:45;96327.84;;;13.43;46.17
56719;BME280;42597;40.636;0.278;2024-01-06T10:02:14;96352.84;;;13.01;47.56
56719;BME280;42597;40.636;0.278;2024-01-06T10:04:40;96387.09;;;13.30;47.14
56719;BME280;42597;40.636;0.278;2024-01-06T10:07:07;96360.50;;;12.84;50.06
56719;BME280;42597;40.636;0.278;2024-01-06T10:09:33;96333.13;;;13.04;48.27
56719;BME280;42597;40.636;0.278;2024-01-06T10:11:58;96368.38;;;13.04;49.25
56719;BME280;42597;40.636;0.278;2024-01-06T10:14:25;96316.63;;;13.63;48.08
56719;BME280;42597;40.636;0.278;2024-01-06T10:16:52;96464.94;;;12.64;50.15
56719;BME280;42597;40.636;0.278;2024-01-06T10:19:18;96318.22;;;13.89;47.34
56719;BME280;42597;40.636;0.278;2024-01-06T10:21:44;96421.75;;;12.93;46.60
56719;BME280;42597;40.636;0.278;2024-01-06T10:24:10;96398.59;;;11.28;46.92
56719;BME280;42597;40.636;0.278;2024-01-06T10:26:36;96379.97;;;13.01;45.94
56719;BME280;42597;40.636;0.278;2024-01-06T10:29:01;96238.31;;;13.47;48.31
56719;BME280;42597;40.636;0.278;2024-01-06T10:31:29;96314.31;;;13.65;47.35
56719;BME280;42597;40.636;0.278;2024-01-06T10:33:55;96375.53;;;13.48;48.08
56719;BME280;42597;40.636;0.278;2024-01-06T10:36:23;96411.53;;;13.34;48.65
56719;BME280;42597;40.636;0.278;2024-01-06T10:38:49;96441.38;;;13.38;47.33
56719;BME280;42597;40.636;0.278;2024-01-06T10:41:16;96396.50;;;13.58;47.48
56719;BME280;42597;40.636;0.278;2024-01-06T10:43:42;96408.72;;;12.50;49.58
56719;BME280;42597;40.636;0.278;2024-01-06T10:46:09;96390.38;;;13.90;47.07
56719;BME280;42597;40.636;0.278;2024-01-06T10:48:37;96422.16;;;13.71;47.28
56719;BME280;42597;40.636;0.278;2024-01-06T10:51:11;96421.88;;;13.14;45.39
56719;BME280;42597;40.636;0.278;2024-01-06T10:53:37;96439.19;;;12.92;48.73
56719;BME280;42597;40.636;0.278;2024-01-06T10:56:09;96412.63;;;13.19;47.50
56719;BME280;42597;40.636;0.278;2024-01-06T10:58:48;96417.41;;;13.54;46.48
56719;BME280;42597;40.636;0.278;2024-01-06T11:01:22;96429.09;;;13.69;47.70
56719;BME280;42597;40.636;0.278;2024-01-06T11:03:49;96363.94;;;13.62;47.75
56719;BME280;42597;40.636;0.278;2024-01-06T11:06:17;96422.56;;;13.00;47.74
56719;BME280;42597;40.636;0.278;2024-01-06T11:08:53;96415.28;;;12.53;47.78
56719;BME280;42597;40.636;0.278;2024-01-06T11:11:23;96457.16;;;13.21;48.15
56719;BME280;42597;40.636;0.278;2024-01-06T11:13:49;96426.03;;;12.97;44.17
56719;BME280;42597;40.636;0.278;2024-01-06T11:16:37;96397.94;;;13.23;47.99
56719;BME280;42597;40.636;0.278;2024-01-06T11:24:49;96352.19;;;12.52;46.82
56719;BME280;42597;40.636;0.278;2024-01-06T11:27:20;96404.28;;;13.63;47.68
56719;BME280;42597;40.636;0.278;2024-01-06T11:29:48;96363.25;;;12.29;45.54
56719;BME280;42597;40.636;0.278;2024-01-06T11:32:27;96341.38;;;13.32;48.60
56719;BME280;42597;40.636;0.278;2024-01-06T11:34:54;96390.91;;;13.19;46.36
56719;BME280;42597;40.636;0.278;2024-01-06T11:37:50;96374.44;;;13.63;47.12
56719;BME280;42597;40.636;0.278;2024-01-06T11:42:58;96353.84;;;13.48;47.78
56719;BME280;42597;40.636;0.278;2024-01-06T11:45:25;96374.53;;;13.01;48.82
56719;BME280;42597;40.636;0.278;2024-01-06T11:47:54;96396.97;;;12.91;49.24
56719;BME280;42597;40.636;0.278;2024-01-06T11:50:21;96399.63;;;13.74;43.74
56719;BME280;42597;40.636;0.278;2024-01-06T11:52:49;96409.88;;;13.15;47.78
56719;BME280;42597;40.636;0.278;2024-01-06T11:55:17;96394.19;;;12.28;46.83
56719;BME280;42597;40.636;0.278;2024-01-06T11:57:44;96377.78;;;13.24;47.73
56719;BME280;42597;40.636;0.278;2024-01-06T12:00:11;96388.91;;;12.43;46.79
56719;BME280;42597;40.636;0.278;2024-01-06T12:02:37;96367.47;;;13.91;46.87
56719;BME280;42597;40.636;0.278;2024-01-06T12:05:03;96428.69;;;13.67;47.35
56719;BME280;42597;40.636;0.278;2024-01-06T12:07:28;96332.84;;;13.34;47.68
56719;BME280;42597;40.636;0.278;2024-01-06T12:10:02;96388.00;;;12.28;45.59
56719;BME280;42597;40.636;0.278;2024-01-06T12:12:28;96379.84;;;12.76;45.97
56719;BME280;42597;40.636;0.278;2024-01-06T12:14:53;96389.84;;;12.68;44.95
56719;BME280;42597;40.636;0.278;2024-01-06T12:17:20;96393.78;;;12.81;47.14
56719;BME280;42597;40.636;0.278;2024-01-06T12:19:46;96384.88;;;13.61;47.79
56719;BME280;42597;40.636;0.278;2024-01-06T12:22:14;96372.41;;;13.42;48.08
56719;BME280;42597;40.636;0.278;2024-01-06T12:24:41;96394.72;;;13.03;48.27
56719;BME280;42597;40.636;0.278;2024-01-06T12:27:11;96418.84;;;13.26;43.46
56719;BME280;42597;40.636;0.278;2024-01-06T12:29:42;96380.22;;;13.58;47.79
56719;BME280;42597;40.636;0.278;2024-01-06T12:32:11;96401.03;;;13.25;45.68
56719;BME280;42597;40.636;0.278;2024-01-06T12:34:38;96387.56;;;13.47;47.07
56719;BME280;42597;40.636;0.278;2024-01-06T12:37:05;96367.84;;;13.64;46.71
56719;BME280;42597;40.636;0.278;2024-01-06T12:39:33;96350.78;;;13.85;45.36
56719;BME280;42597;40.636;0.278;2024-01-06T12:41:58;96392.16;;;12.63;46.67
56719;BME280;42597;40.636;0.278;2024-01-06T12:44:27;96406.56;;;13.47;47.48
56719;BME280;42597;40.636;0.278;2024-01-06T12:46:53;96384.97;;;14.18;46.17
56719;BME280;42597;40.636;0.278;2024-01-06T12:49:19;96379.38;;;13.32;46.79
56719;BME280;42597;40.636;0.278;2024-01-06T12:51:44;96431.56;;;14.42;45.94
56719;BME280;42597;40.636;0.278;2024-01-06T12:54:10;96383.41;;;14.39;45.90
56719;BME280;42597;40.636;0.278;2024-01-06T12:56:35;96426.78;;;13.67;43.97
56719;BME280;42597;40.636;0.278;2024-01-06T12:59:01;96370.22;;;14.16;46.47
56719;BME280;42597;40.636;0.278;2024-01-06T13:01:27;96366.63;;;13.58;44.69
56719;BME280;42597;40.636;0.278;2024-01-06T13:03:53;96401.69;;;13.08;46.77